Bridgeport, New York
Current Conditions -  °F | °C
As of 12:01 PM on Thursday 27 Nov 2014 (Local Time) from KSYR Reporting Station
Light Snow Light Snow  
Wind Chill: 23°   Ceiling: 1900
Heat Index: 29°   Visibility: 1mi
Dew Point: 27°   Wind: 6mph
Humidity: 92%   Direction: 250°WSW
Pressure: 30.03"   Gusts: NA
Location:  43.15°N, 75.97°W
Report Text: KSYR 271701Z 25005KT 1SM R28/4500VP6000FT -SN BR FEW008 SCT014 OVC019 M02/M03 A3003 RMK AO2 P0000 T10171028
Loading
Personal Weather Stations






























Interactive Weather Map New forecast layout! Learn more

10-Day Weather Forecast

Advertisements
Track Severe Weather on mobile